Modlin Airport

METAR EPMO TAF EPMO
-1 °C
°C
-
°C
33m
Age
15:33:21
LT
14:33
UTC
0 ft

1,000

2,000

3,000

4,000

5,000

FEW 2,400
SCT 3,300
VFR
<?= Yii::t('app', 'Wind direction') ?> <?= Yii::t('app', 'of'); ?>
310°
16:28
Sunset
69%
Humidity
Wind shear
Closed/Snow
RWY visual range
RWY condition
Vert. visibility
Min. visibility
CAVOK
Trend
Correction
Special report
1028 hPa
QNH
METAR EPMO 041400Z 31010KT 280V340 9999 FEW024 SCT033 M01/M06 Q1028
Scattered clouds
7 kt
7 kt
15:00
IFR
12 kt
16:00
IFR
12 kt
17:00
IFR
12 kt
18:00
IFR
12 kt
19:00
IFR
12 kt
20:00
IFR
12 kt
21:00
MVFR
12 kt
10 km+
Visibility
None
Ceiling
10 kt
Wind
metar-taf.com/EPMO

Metar-Taf.com

Visual decoder

We and third parties follow your internet behavior on our website with cookies. If you continue, we assume you agree with our cookie policy.